CheckWX is a tool to help pilots better visualize weather data.  It is not intended as a substitute for an official pre-flight weather briefing.

22:56:44 UTC

KDTS METAR
Destin Executive Airport
Destin, Florida, USA
Current

1 hour ago

KDTS 052153Z 19004KT 10SM CLR 18/05 A3013 RMK AO2 SLP202 T01780050
Observed
Dec-5 @ 21:53 UTC
Wind
  • 190° at 4 KTS
Visibility
10 SM
Flight Rules
VFR
Cloud Levels
  • Clear skies
Temperature
18°C / 64°F
Dewpoint
C / 41°F
Humidity
43%
Altimeter
30.13" Hg
Pressure
1020.32 hPa
Previous

2 hours ago

KDTS 052053Z 18005KT 10SM CLR 18/04 A3012 RMK AO2 SLP199 T01830044 55010
Observed
Dec-5 @ 20:53 UTC
Wind
  • 180° at 5 KTS
Visibility
10 SM
Flight Rules
VFR
Cloud Levels
  • Clear skies
Temperature
18°C / 64°F
Dewpoint
C / 39°F
Humidity
40%
Altimeter
30.12" Hg
Pressure
1020.02 hPa
Previous

3 hours ago

KDTS 051953Z 15005KT 10SM CLR 18/04 A3011 RMK AO2 SLP197 T01830044
Observed
Dec-5 @ 19:53 UTC
Wind
  • 150° at 5 KTS
Visibility
10 SM
Flight Rules
VFR
Cloud Levels
  • Clear skies
Temperature
18°C / 64°F
Dewpoint
C / 39°F
Humidity
40%
Altimeter
30.11" Hg
Pressure
1019.62 hPa